Time;durP1;ratioP1;P1;durP2;ratioP2;P2;SDS_P1;SDS_P2;PMS_P1;PMS_P2;Temp;Humidity;BMP_temperature;BMP_pressure;BME280_temperature;BME280_humidity;BME280_pressure;Samples;Min_cycle;Max_cycle;Signal;HPM_P1;HPM_P2
2022/12/21 00:01:17;;;;;;;84.18;33.35;;;9.10;99.90;;;;;;5054635;28;20040;-88
2022/12/21 00:03:44;;;;;;;96.63;33.45;;;9.00;99.90;;;;;;5055670;28;20040;-88
2022/12/21 00:06:11;;;;;;;87.72;34.00;;;9.00;99.90;;;;;;5058514;28;20059;-88
2022/12/21 00:08:43;;;;;;;105.13;32.90;;;8.90;99.90;;;;;;5057005;28;20180;-87
2022/12/21 00:11:09;;;;;;;120.65;34.30;;;9.00;99.90;;;;;;5054623;28;20048;-88
2022/12/21 00:13:35;;;;;;;225.23;35.17;;;9.00;99.90;;;;;;5056140;28;20432;-88
2022/12/21 00:16:06;;;;;;;229.25;34.40;;;9.00;99.90;;;;;;5055333;28;20181;-89
2022/12/21 00:18:33;;;;;;;326.08;34.50;;;8.90;99.90;;;;;;5056377;28;20753;-89
2022/12/21 00:21:09;;;;;;;452.17;36.40;;;8.90;99.90;;;;;;5055738;28;20059;-89
2022/12/21 00:23:36;;;;;;;260.45;33.15;;;8.80;99.90;;;;;;5055189;28;20484;-88
2022/12/21 00:26:04;;;;;;;497.80;37.72;;;8.90;99.90;;;;;;5054515;28;20454;-89
2022/12/21 00:28:31;;;;;;;427.13;34.47;;;8.90;99.90;;;;;;5054602;28;20047;-89
2022/12/21 00:31:08;;;;;;;323.23;32.00;;;8.80;99.90;;;;;;5054975;28;20159;-88
2022/12/21 00:33:35;;;;;;;462.50;34.30;;;8.90;99.90;;;;;;5055190;28;20046;-88
2022/12/21 00:36:02;;;;;;;400.40;32.00;;;8.80;99.90;;;;;;5054466;28;20044;-87
2022/12/21 00:38:27;;;;;;;376.52;31.27;;;8.80;99.90;;;;;;5043159;28;20040;-88
2022/12/21 00:40:58;;;;;;;443.33;31.73;;;8.70;99.90;;;;;;5037455;28;20043;-88
2022/12/21 00:43:24;;;;;;;410.55;31.35;;;8.70;99.90;;;;;;5055532;28;20035;-88
2022/12/21 00:45:50;;;;;;;385.60;30.50;;;8.70;99.90;;;;;;5055875;28;20040;-88
2022/12/21 00:48:16;;;;;;;325.45;29.58;;;8.60;99.90;;;;;;5055058;28;20028;-88
2022/12/21 00:50:42;;;;;;;442.02;31.67;;;8.60;99.90;;;;;;5037976;28;20036;-88
2022/12/21 00:53:08;;;;;;;336.02;27.98;;;8.60;99.90;;;;;;5054868;28;20115;-88
2022/12/21 00:55:34;;;;;;;453.52;28.30;;;8.50;99.90;;;;;;5036847;28;20488;-88
2022/12/21 00:58:01;;;;;;;242.70;27.40;;;8.50;99.90;;;;;;5054585;28;20071;-88
2022/12/21 01:00:27;;;;;;;186.45;26.70;;;8.50;99.90;;;;;;5056768;28;20036;-88
2022/12/21 01:02:53;;;;;;;362.23;28.38;;;8.50;99.90;;;;;;5058473;28;20032;-89
2022/12/21 01:05:19;;;;;;;284.38;26.60;;;8.50;99.90;;;;;;5042232;28;20032;-88
2022/12/21 01:07:44;;;;;;;316.15;27.05;;;8.50;99.90;;;;;;5042124;28;20426;-88
2022/12/21 01:10:11;;;;;;;240.32;24.77;;;;;;;;;;5058122;28;20047;-89
2022/12/21 01:12:37;;;;;;;223.30;23.40;;;8.50;99.90;;;;;;5058199;28;20098;-88
2022/12/21 01:15:03;;;;;;;338.95;24.02;;;8.30;99.90;;;;;;5058012;28;20043;-88
2022/12/21 01:17:29;;;;;;;240.25;24.45;;;8.40;99.90;;;;;;5056357;28;20039;-88
2022/12/21 01:19:55;;;;;;;281.92;25.95;;;8.30;99.90;;;;;;5054312;28;20538;-88
2022/12/21 01:22:21;;;;;;;260.90;23.10;;;8.30;99.90;;;;;;5053427;28;20048;-88
2022/12/21 01:24:47;;;;;;;213.57;23.50;;;8.20;99.90;;;;;;5054454;28;20917;-88
2022/12/21 01:27:13;;;;;;;287.52;22.77;;;8.30;99.90;;;;;;5053335;28;20473;-88
2022/12/21 01:29:39;;;;;;;237.40;22.38;;;8.30;99.90;;;;;;5054487;28;20048;-88
2022/12/21 01:32:05;;;;;;;245.73;22.80;;;8.20;99.90;;;;;;5053970;28;20044;-89
2022/12/21 01:34:30;;;;;;;203.07;22.65;;;8.20;99.90;;;;;;5046213;28;20448;-88
2022/12/21 01:36:56;;;;;;;276.55;23.00;;;8.20;99.90;;;;;;5053033;28;20105;-88
2022/12/21 01:39:22;;;;;;;309.05;22.73;;;8.80;99.90;;;;;;5052870;28;20120;-88
2022/12/21 01:41:47;;;;;;;404.42;23.60;;;8.00;99.90;;;;;;5054506;28;20429;-88
2022/12/21 01:44:47;;;;;;;336.63;21.67;;;8.50;99.90;;;;;;5053752;28;20464;-87
2022/12/21 01:47:18;;;;;;;255.40;21.23;;;8.00;99.90;;;;;;5053126;28;20033;-88
2022/12/21 01:49:50;;;;;;;172.98;21.10;;;7.90;99.90;;;;;;5052846;28;20062;-88
2022/12/21 01:52:16;;;;;;;211.27;21.92;;;8.10;99.90;;;;;;5052278;28;20151;-88
2022/12/21 01:54:50;;;;;;;356.45;25.35;;;8.20;99.90;;;;;;5036865;28;20526;-88
2022/12/21 01:57:17;;;;;;;163.82;21.00;;;7.90;99.90;;;;;;5053217;28;20055;-88
2022/12/21 01:59:46;;;;;;;165.32;21.17;;;8.00;99.90;;;;;;5053659;28;20045;-87
2022/12/21 02:02:25;;;;;;;437.25;24.23;;;8.00;99.90;;;;;;5053982;28;20048;-88
2022/12/21 02:04:52;;;;;;;390.83;23.80;;;7.90;99.90;;;;;;5044838;28;20052;-88
2022/12/21 02:07:20;;;;;;;382.42;23.98;;;7.90;99.90;;;;;;5053103;28;20468;-88
2022/12/21 02:09:46;;;;;;;140.18;21.20;;;7.80;99.90;;;;;;5053689;28;20052;-88
2022/12/21 02:12:16;;;;;;;247.30;23.13;;;8.00;99.90;;;;;;5052217;28;20045;-88
2022/12/21 02:14:46;;;;;;;171.50;21.73;;;7.70;99.90;;;;;;5053726;28;20435;-87
2022/12/21 02:17:27;;;;;;;299.30;24.13;;;8.40;99.90;;;;;;5053324;28;20503;-88
2022/12/21 02:20:14;;;;;;;306.85;24.35;;;7.80;99.90;;;;;;5053421;28;20504;-88
2022/12/21 02:23:14;;;;;;;268.17;22.83;;;7.70;99.90;;;;;;5052029;28;20131;-88
2022/12/21 02:25:58;;;;;;;267.92;23.63;;;7.70;99.90;;;;;;5052759;28;20426;-88
2022/12/21 02:28:53;;;;;;;288.67;22.60;;;7.70;99.90;;;;;;5052465;28;20072;-88
2022/12/21 02:31:46;;;;;;;421.52;27.58;;;7.60;99.90;;;;;;5044678;28;20044;-88
2022/12/21 02:34:36;;;;;;;294.83;21.52;;;7.60;99.90;;;;;;5052748;28;20221;-88
2022/12/21 02:37:24;;;;;;;413.98;25.42;;;6.50;99.90;;;;;;5061927;28;20099;-88
2022/12/21 02:39:55;;;;;;;460.95;28.95;;;7.60;99.90;;;;;;5064082;28;20041;-88
2022/12/21 02:45:41;;;;;;;539.15;29.50;;;7.50;99.90;;;;;;5069989;28;20041;-88
2022/12/21 02:48:16;;;;;;;480.70;28.55;;;7.50;99.90;;;;;;5051668;28;20032;-87
2022/12/21 02:50:48;;;;;;;454.75;27.23;;;7.50;99.90;;;;;;5052766;28;20032;-88
2022/12/21 02:53:19;;;;;;;433.77;29.15;;;7.50;99.90;;;;;;5052337;28;20408;-88
2022/12/21 02:55:45;;;;;;;363.10;28.10;;;7.40;99.90;;;;;;5045342;28;20130;-88
2022/12/21 02:58:19;;;;;;;374.35;26.05;;;8.20;99.90;;;;;;5052775;28;20044;-87
2022/12/21 03:00:51;;;;;;;518.33;29.52;;;7.60;99.90;;;;;;5050999;28;20064;-88
2022/12/21 03:06:26;;;;;;;418.65;29.60;;;7.50;99.90;;;;;;5068701;28;20052;-88
2022/12/21 03:09:07;;;;;;;403.80;25.85;;;7.60;99.90;;;;;;5051607;28;20044;-88
2022/12/21 03:11:56;;;;;;;235.05;23.15;;;7.70;99.90;;;;;;5051485;28;20123;-88
2022/12/21 03:14:29;;;;;;;391.30;25.13;;;7.50;99.90;;;;;;5051896;28;20055;-88
2022/12/21 03:17:05;;;;;;;138.23;21.35;;;7.50;99.90;;;;;;5050631;28;20507;-88
2022/12/21 03:19:37;;;;;;;184.90;22.00;;;7.50;99.90;;;;;;5051955;28;20040;-88
2022/12/21 03:22:11;;;;;;;132.93;21.50;;;7.50;99.90;;;;;;5055468;28;20048;-88
2022/12/21 03:24:43;;;;;;;146.80;20.77;;;7.40;99.90;;;;;;5056109;28;20044;-87
2022/12/21 03:27:18;;;;;;;138.35;21.00;;;7.50;99.90;;;;;;5071962;28;20056;-87
2022/12/21 03:30:04;;;;;;;86.10;18.95;;;7.40;99.90;;;;;;5053601;28;20044;-88
2022/12/21 03:32:51;;;;;;;204.20;23.80;;;7.40;99.90;;;;;;5055189;28;20044;-88
2022/12/21 03:35:38;;;;;;;113.32;20.77;;;7.40;99.90;;;;;;5053795;28;20040;-88
2022/12/21 03:38:10;;;;;;;106.50;20.75;;;7.40;99.90;;;;;;5054919;28;20479;-88
2022/12/21 03:40:40;;;;;;;63.25;18.85;;;7.40;99.90;;;;;;5071291;28;20040;-88
2022/12/21 03:43:19;;;;;;;116.93;20.02;;;7.40;99.90;;;;;;5055323;28;20040;-88
2022/12/21 03:45:50;;;;;;;195.70;21.50;;;7.50;99.90;;;;;;5049856;28;20047;-88
2022/12/21 03:48:49;;;;;;;95.75;19.80;;;7.60;99.90;;;;;;5053423;28;20050;-87
2022/12/21 03:51:25;;;;;;;103.03;18.35;;;7.30;99.90;;;;;;5053000;28;20040;-88
2022/12/21 03:54:05;;;;;;;152.27;19.02;;;7.50;99.90;;;;;;5055019;28;20036;-88
2022/12/21 03:56:35;;;;;;;101.20;19.42;;;7.30;99.90;;;;;;5054554;28;20119;-88
2022/12/21 03:59:02;;;;;;;115.57;18.65;;;7.30;99.90;;;;;;5054172;28;20036;-88
2022/12/21 04:01:35;;;;;;;119.78;19.00;;;7.30;99.90;;;;;;5053339;28;20041;-87
2022/12/21 04:04:11;;;;;;;166.73;19.35;;;7.30;99.90;;;;;;5053309;28;20047;-88
2022/12/21 04:06:40;;;;;;;204.35;20.77;;;7.60;99.90;;;;;;5054599;28;20111;-88
2022/12/21 04:09:06;;;;;;;232.73;21.00;;;7.30;99.90;;;;;;5054060;28;20479;-88
2022/12/21 04:14:21;;;;;;;156.30;20.67;;;7.30;99.90;;;;;;5070474;28;20043;-88
2022/12/21 04:16:47;;;;;;;122.93;21.20;;;7.20;99.90;;;;;;5054087;28;20040;-88
2022/12/21 04:21:57;;;;;;;367.92;24.10;;;7.70;99.90;;;;;;5070034;28;20044;-88
2022/12/21 04:29:54;;;;;;;334.42;24.50;;;7.20;99.90;;;;;;5070463;28;20116;-88
2022/12/21 04:32:19;;;;;;;302.38;23.23;;;7.50;99.90;;;;;;5053820;28;20472;-87
2022/12/21 04:34:45;;;;;;;249.27;21.50;;;7.00;99.90;;;;;;5038799;28;20051;-88
2022/12/21 04:39:55;;;;;;;378.83;21.60;;;7.00;99.90;;;;;;5075168;28;20056;-88
2022/12/21 04:42:21;;;;;;;545.83;27.05;;;7.30;99.90;;;;;;5041863;28;20044;-87
2022/12/21 04:44:46;;;;;;;365.10;22.48;;;7.20;99.90;;;;;;5074519;28;20118;-88
2022/12/21 04:47:12;;;;;;;287.30;23.95;;;7.70;99.90;;;;;;5057965;28;20137;-88
2022/12/21 04:49:38;;;;;;;440.20;24.67;;;7.10;99.90;;;;;;5058169;28;20039;-87
2022/12/21 04:52:04;;;;;;;480.90;26.70;;;7.70;99.90;;;;;;5042144;28;20102;-88
2022/12/21 04:54:30;;;;;;;343.75;23.60;;;7.10;99.90;;;;;;5058509;28;20479;-88
2022/12/21 04:56:55;;;;;;;283.98;23.02;;;8.00;99.90;;;;;;5057729;28;20044;-87
2022/12/21 04:59:21;;;;;;;186.18;21.05;;;7.00;99.90;;;;;;5057532;28;20044;-88
2022/12/21 05:01:47;;;;;;;244.88;23.27;;;7.30;99.90;;;;;;5058955;28;20790;-87
2022/12/21 05:04:12;;;;;;;186.85;24.17;;;7.00;99.90;;;;;;5058235;28;20044;-88
2022/12/21 05:06:38;;;;;;;452.48;28.65;;;7.20;99.90;;;;;;5057491;28;20047;-88
2022/12/21 05:09:04;;;;;;;208.65;19.45;;;7.80;99.90;;;;;;5057849;28;20047;-88
2022/12/21 05:11:30;;;;;;;230.95;24.30;;;;;;;;;;5059296;28;20039;-87
2022/12/21 05:13:56;;;;;;;213.35;22.58;;;7.10;99.90;;;;;;5060545;28;20039;-88
2022/12/21 05:16:23;;;;;;;182.23;21.83;;;7.10;99.90;;;;;;5042591;28;20039;-88
2022/12/21 05:18:50;;;;;;;250.57;21.85;;;7.70;99.90;;;;;;5059078;28;20055;-88
2022/12/21 05:21:17;;;;;;;156.63;19.83;;;7.40;99.90;;;;;;5058784;28;20048;-88
2022/12/21 05:23:43;;;;;;;148.07;20.52;;;7.00;99.90;;;;;;5059463;28;20051;-88
2022/12/21 05:26:09;;;;;;;245.23;23.77;;;7.10;99.90;;;;;;5058522;28;20055;-88
2022/12/21 05:28:35;;;;;;;373.15;26.98;;;7.90;99.90;;;;;;5057879;28;20497;-88
2022/12/21 05:31:03;;;;;;;237.48;20.13;;;7.00;99.90;;;;;;5057383;28;20040;-88
2022/12/21 05:33:29;;;;;;;295.92;23.92;;;7.00;99.90;;;;;;5057843;28;20065;-87
2022/12/21 05:35:55;;;;;;;169.35;19.50;;;7.00;99.90;;;;;;5057495;28;20043;-88
2022/12/21 05:38:21;;;;;;;188.77;17.92;;;6.90;99.90;;;;;;5057055;28;20592;-88
2022/12/21 05:40:47;;;;;;;280.85;22.77;;;6.90;99.90;;;;;;5040991;28;20119;-88
2022/12/21 05:43:13;;;;;;;315.00;23.50;;;6.90;99.90;;;;;;5057860;28;20108;-88
2022/12/21 05:45:39;;;;;;;273.60;23.90;;;6.90;99.90;;;;;;5057918;28;20432;-87
2022/12/21 05:48:05;;;;;;;259.25;20.77;;;6.90;99.90;;;;;;5057778;28;20039;-87
2022/12/21 05:50:31;;;;;;;367.45;21.58;;;;;;;;;;5042100;28;20112;-88
2022/12/21 05:52:57;;;;;;;355.40;25.33;;;6.90;99.90;;;;;;5068222;28;20048;-88
2022/12/21 05:55:22;;;;;;;135.73;19.50;;;6.90;99.90;;;;;;5056578;28;20044;-88
2022/12/21 05:57:48;;;;;;;287.85;22.58;;;5.70;99.90;;;;;;5056283;28;20491;-88
2022/12/21 06:00:14;;;;;;;145.50;20.15;;;6.90;99.90;;;;;;5056914;28;20215;-87
2022/12/21 06:02:40;;;;;;;191.98;22.05;;;6.90;99.90;;;;;;5041117;28;20484;-87
2022/12/21 06:05:06;;;;;;;313.60;22.80;;;6.90;99.90;;;;;;5056923;28;20047;-87
2022/12/21 06:07:32;;;;;;;250.63;23.33;;;6.90;99.90;;;;;;5055884;28;20042;-88
2022/12/21 06:09:58;;;;;;;204.00;20.60;;;7.00;99.90;;;;;;5055560;28;20040;-88
2022/12/21 06:12:24;;;;;;;201.75;22.48;;;6.90;99.90;;;;;;5055000;28;20046;-88
2022/12/21 06:14:49;;;;;;;199.18;22.40;;;6.90;99.90;;;;;;5056779;28;20525;-88
2022/12/21 06:17:15;;;;;;;190.95;23.13;;;6.90;99.90;;;;;;5039720;28;20463;-88
2022/12/21 06:19:41;;;;;;;112.57;22.27;;;6.90;99.90;;;;;;5073833;28;20040;-88
2022/12/21 06:22:07;;;;;;;180.55;26.10;;;6.90;99.90;;;;;;5056431;28;20126;-88
2022/12/21 06:24:33;;;;;;;175.20;23.08;;;7.10;99.90;;;;;;5055509;28;20079;-88
2022/12/21 06:26:58;;;;;;;200.32;23.13;;;6.90;99.90;;;;;;5055924;28;20040;-88
2022/12/21 06:29:24;;;;;;;179.13;24.60;;;6.90;99.90;;;;;;5055987;28;20043;-88
2022/12/21 06:31:50;;;;;;;222.35;22.45;;;7.00;99.90;;;;;;5073186;28;20040;-88
2022/12/21 06:34:16;;;;;;;443.05;28.80;;;6.90;99.90;;;;;;5056640;28;20048;-87
2022/12/21 06:36:41;;;;;;;442.92;28.88;;;6.80;99.90;;;;;;5056142;28;20071;-87
2022/12/21 06:39:07;;;;;;;364.30;26.85;;;6.90;99.90;;;;;;5054815;28;20047;-88
2022/12/21 06:41:33;;;;;;;477.15;28.38;;;7.30;99.90;;;;;;5039960;28;20040;-88
2022/12/21 06:43:58;;;;;;;270.80;24.23;;;7.10;99.90;;;;;;5056043;28;20400;-88
2022/12/21 06:46:24;;;;;;;255.60;23.52;;;6.80;99.90;;;;;;5055694;28;20036;-88
2022/12/21 06:48:50;;;;;;;333.08;26.52;;;7.00;99.90;;;;;;5056233;28;20047;-88
2022/12/21 06:51:21;;;;;;;167.68;23.77;;;6.90;99.90;;;;;;5056442;28;20044;-88
2022/12/21 06:53:48;;;;;;;135.75;24.58;;;6.90;99.90;;;;;;5054903;28;20487;-89
2022/12/21 06:56:16;;;;;;;160.90;25.10;;;6.90;99.90;;;;;;5073251;28;20047;-88
2022/12/21 06:58:42;;;;;;;88.20;22.17;;;6.90;99.90;;;;;;5049269;28;20075;-88
2022/12/21 07:01:10;;;;;;;113.28;24.10;;;6.90;99.90;;;;;;5056401;28;20075;-89
2022/12/21 07:03:38;;;;;;;122.38;22.60;;;7.30;99.90;;;;;;5055997;28;20127;-89
2022/12/21 07:06:05;;;;;;;280.08;26.25;;;6.80;99.90;;;;;;5055931;28;20128;-88
2022/12/21 07:08:31;;;;;;;266.23;25.73;;;7.10;99.90;;;;;;5054646;28;20384;-88
2022/12/21 07:10:59;;;;;;;322.02;26.60;;;7.40;99.90;;;;;;5055663;28;20093;-88
2022/12/21 07:13:26;;;;;;;551.97;30.55;;;6.90;99.90;;;;;;5055886;28;20043;-88
2022/12/21 07:15:52;;;;;;;489.65;30.13;;;7.70;99.90;;;;;;5056014;28;20082;-88
2022/12/21 07:18:18;;;;;;;278.33;23.75;;;6.80;99.90;;;;;;5055166;28;20082;-87
2022/12/21 07:20:44;;;;;;;518.15;28.73;;;6.70;99.90;;;;;;5046194;28;20127;-88
2022/12/21 07:23:10;;;;;;;272.80;22.85;;;7.60;99.90;;;;;;5054720;28;20606;-88
2022/12/21 07:25:35;;;;;;;246.05;23.80;;;6.60;99.90;;;;;;5055722;28;20047;-88
2022/12/21 07:28:01;;;;;;;112.43;22.55;;;7.60;99.90;;;;;;5055075;28;20121;-87
2022/12/21 07:30:27;;;;;;;158.68;24.33;;;6.80;99.90;;;;;;5039336;28;20177;-89
2022/12/21 07:32:53;;;;;;;110.60;22.45;;;6.70;99.90;;;;;;5043899;28;20051;-89
2022/12/21 07:35:21;;;;;;;127.82;24.42;;;6.60;99.90;;;;;;5055273;28;20169;-88
2022/12/21 07:37:47;;;;;;;95.43;23.27;;;7.20;99.90;;;;;;5039897;28;20050;-85
2022/12/21 07:40:15;;;;;;;162.88;25.00;;;6.90;99.90;;;;;;5034498;28;20040;-84
2022/12/21 07:42:44;;;;;;;116.78;24.48;;;6.60;99.90;;;;;;5039813;28;20039;-85
2022/12/21 07:45:11;;;;;;;107.47;24.15;;;6.70;99.90;;;;;;5041934;28;20043;-86
2022/12/21 07:47:36;;;;;;;90.85;24.20;;;6.60;99.90;;;;;;5073467;28;20069;-86
2022/12/21 07:50:07;;;;;;;76.03;22.90;;;7.00;99.90;;;;;;5040318;28;20043;-85
2022/12/21 07:52:33;;;;;;;124.82;25.08;;;6.50;99.90;;;;;;5038175;28;20047;-85
2022/12/21 07:54:59;;;;;;;86.95;24.05;;;6.60;99.90;;;;;;5048745;28;20114;-85
2022/12/21 07:57:25;;;;;;;81.32;24.42;;;6.50;99.90;;;;;;5054793;28;20488;-85
2022/12/21 07:59:50;;;;;;;179.07;27.52;;;6.90;99.90;;;;;;5054838;28;20040;-84
2022/12/21 08:02:17;;;;;;;102.28;27.08;;;6.80;99.90;;;;;;5037509;28;20055;-83
2022/12/21 08:04:42;;;;;;;81.43;24.98;;;6.50;99.90;;;;;;5067223;28;20461;-83
2022/12/21 08:07:08;;;;;;;79.95;27.08;;;6.50;99.90;;;;;;5053878;28;20063;-84
2022/12/21 08:09:34;;;;;;;85.30;26.10;;;6.50;99.90;;;;;;5055888;28;20044;-85
2022/12/21 08:12:00;;;;;;;83.07;26.92;;;6.50;99.90;;;;;;5059536;28;20044;-84
2022/12/21 08:14:26;;;;;;;82.93;28.30;;;6.80;99.90;;;;;;5059144;28;20048;-84
2022/12/21 08:16:52;;;;;;;152.77;29.63;;;6.60;99.90;;;;;;5024777;28;20553;-85
2022/12/21 08:19:18;;;;;;;90.00;29.67;;;6.60;99.90;;;;;;5025484;28;20040;-85
2022/12/21 08:21:43;;;;;;;108.20;29.70;;;6.90;99.90;;;;;;5041771;28;20060;-83
2022/12/21 08:24:09;;;;;;;100.60;31.40;;;6.80;99.90;;;;;;5058524;28;20036;-84
2022/12/21 08:26:35;;;;;;;131.15;33.03;;;6.60;99.90;;;;;;5042706;28;20100;-85
2022/12/21 08:29:01;;;;;;;269.25;32.20;;;6.70;99.90;;;;;;5056664;28;20123;-85
2022/12/21 08:31:27;;;;;;;265.20;31.00;;;6.80;99.90;;;;;;5041663;28;20036;-85
2022/12/21 08:33:52;;;;;;;261.27;32.95;;;6.90;99.90;;;;;;5058020;28;20032;-85
2022/12/21 08:36:22;;;;;;;230.40;31.52;;;6.80;99.90;;;;;;5042402;28;20400;-85
2022/12/21 08:38:49;;;;;;;175.88;29.52;;;6.90;99.90;;;;;;5058434;28;20044;-85
2022/12/21 08:41:16;;;;;;;255.70;33.38;;;6.80;99.90;;;;;;5075142;28;20024;-85
2022/12/21 08:43:41;;;;;;;173.15;30.48;;;6.90;99.90;;;;;;5042330;28;20039;-85
2022/12/21 08:46:10;;;;;;;164.20;30.45;;;6.90;99.90;;;;;;5063220;28;20046;-85
2022/12/21 08:48:36;;;;;;;258.80;32.08;;;7.00;99.90;;;;;;5073499;28;20074;-85
2022/12/21 08:51:03;;;;;;;188.05;30.85;;;7.00;99.90;;;;;;5073761;28;20468;-85
2022/12/21 08:53:29;;;;;;;186.20;27.02;;;7.00;99.90;;;;;;5041177;28;20044;-85
2022/12/21 08:55:55;;;;;;;182.95;29.52;;;7.00;99.90;;;;;;5042767;28;20487;-85
2022/12/21 08:58:22;;;;;;;186.57;32.95;;;7.00;99.90;;;;;;5058571;28;20392;-85
2022/12/21 09:00:54;;;;;;;141.55;31.52;;;7.00;99.90;;;;;;5070109;28;20043;-85
2022/12/21 09:03:20;;;;;;;159.85;30.45;;;7.00;99.90;;;;;;5055373;28;20079;-85
2022/12/21 09:05:46;;;;;;;141.52;30.75;;;7.10;99.90;;;;;;5042159;28;20040;-85
2022/12/21 09:08:13;;;;;;;68.40;23.77;;;7.10;99.90;;;;;;5058500;28;20035;-85
2022/12/21 09:10:39;;;;;;;108.75;30.33;;;7.20;99.90;;;;;;5042056;28;20698;-85
2022/12/21 09:13:05;;;;;;;129.55;32.72;;;7.20;99.90;;;;;;5041636;28;20440;-86
2022/12/21 09:15:31;;;;;;;116.30;31.13;;;7.20;99.90;;;;;;5025600;28;20054;-85
2022/12/21 09:17:57;;;;;;;100.82;29.60;;;7.20;99.90;;;;;;5057170;28;20036;-85
2022/12/21 09:20:23;;;;;;;111.45;29.73;;;7.30;99.90;;;;;;5054879;28;20043;-86
2022/12/21 09:22:49;;;;;;;106.97;30.58;;;7.30;99.90;;;;;;5057414;28;20052;-85
2022/12/21 09:25:14;;;;;;;110.55;30.35;;;7.40;99.90;;;;;;5071940;28;20073;-85
2022/12/21 09:27:40;;;;;;;112.78;30.13;;;7.50;99.90;;;;;;5074367;28;20089;-85
2022/12/21 09:30:06;;;;;;;102.72;29.05;;;7.50;99.90;;;;;;5047309;28;20082;-86
2022/12/21 09:32:35;;;;;;;117.72;30.17;;;7.60;99.90;;;;;;5056800;28;20431;-88
2022/12/21 09:35:01;;;;;;;99.78;30.35;;;7.70;99.90;;;;;;5025831;28;20040;-85
2022/12/21 09:37:28;;;;;;;109.57;30.00;;;7.70;99.90;;;;;;5041167;28;20055;-84
2022/12/21 09:39:53;;;;;;;97.30;27.98;;;7.70;99.90;;;;;;5073018;28;20040;-84
2022/12/21 09:42:34;;;;;;;102.15;29.52;;;7.70;99.90;;;;;;5041771;28;20094;-85
2022/12/21 09:45:12;;;;;;;96.18;28.80;;;7.70;99.90;;;;;;5047334;28;20136;-83
2022/12/21 09:48:16;;;;;;;92.68;28.63;;;7.70;99.90;;;;;;5064342;28;20043;-84
2022/12/21 09:50:51;;;;;;;96.25;30.08;;;7.90;99.90;;;;;;5054777;28;20138;-86
2022/12/21 09:53:29;;;;;;;89.05;29.88;;;8.10;99.90;;;;;;5055738;28;20036;-86
2022/12/21 09:55:58;;;;;;;87.78;28.52;;;8.20;99.90;;;;;;5055053;28;20127;-86
2022/12/21 09:58:40;;;;;;;83.43;25.35;;;8.20;99.90;;;;;;5055620;28;20382;-86
2022/12/21 10:01:22;;;;;;;92.65;27.52;;;8.20;99.90;;;;;;5056679;28;20044;-86
2022/12/21 10:03:51;;;;;;;86.15;29.02;;;8.10;99.90;;;;;;5072085;28;20055;-86
2022/12/21 10:06:45;;;;;;;87.45;28.40;;;8.10;99.90;;;;;;5055998;28;20519;-86
2022/12/21 10:09:22;;;;;;;80.90;27.63;;;8.10;99.90;;;;;;5057326;28;20098;-86
2022/12/21 10:12:04;;;;;;;77.68;27.55;;;8.10;99.90;;;;;;5057555;28;20040;-86
2022/12/21 10:14:48;;;;;;;83.30;28.70;;;8.10;99.90;;;;;;5074258;28;20051;-86
2022/12/21 10:17:42;;;;;;;78.68;26.17;;;8.10;99.90;;;;;;5058701;28;20048;-86
2022/12/21 10:20:32;;;;;;;78.00;28.35;;;8.20;99.90;;;;;;5057049;28;20391;-86
2022/12/21 10:23:02;;;;;;;80.00;28.20;;;8.30;99.90;;;;;;5056564;28;20085;-86
2022/12/21 10:25:45;;;;;;;78.68;26.67;;;8.70;99.90;;;;;;5072417;28;20036;-86
2022/12/21 10:28:29;;;;;;;76.22;28.95;;;9.20;99.90;;;;;;5055906;28;20036;-85
2022/12/21 10:31:03;;;;;;;62.28;26.83;;;9.50;99.90;;;;;;5071939;28;20043;-86
2022/12/21 10:33:30;;;;;;;56.65;25.05;;;9.80;99.90;;;;;;5055566;28;20109;-85
2022/12/21 10:36:02;;;;;;;58.17;24.90;;;10.00;99.90;;;;;;5040641;28;20072;-86
2022/12/21 10:38:31;;;;;;;52.42;24.80;;;10.10;99.90;;;;;;5055313;28;20036;-86
2022/12/21 10:40:57;;;;;;;60.33;26.73;;;10.10;99.90;;;;;;5073274;28;20129;-86
2022/12/21 10:43:23;;;;;;;55.28;26.42;;;10.00;99.90;;;;;;5055331;28;20097;-86
2022/12/21 10:45:49;;;;;;;56.20;25.52;;;9.90;99.90;;;;;;5040543;28;20040;-86
2022/12/21 10:48:15;;;;;;;55.60;26.67;;;10.00;99.90;;;;;;5053792;28;20040;-86
2022/12/21 10:50:46;;;;;;;54.28;27.95;;;9.80;99.90;;;;;;5071843;28;20074;-87
2022/12/21 10:53:30;;;;;;;55.83;25.73;;;9.70;99.90;;;;;;5056272;28;20079;-86
2022/12/21 10:55:59;;;;;;;58.45;27.48;;;9.50;99.90;;;;;;5037137;28;20040;-86
2022/12/21 10:58:28;;;;;;;61.08;27.83;;;9.40;99.90;;;;;;5071853;28;20383;-85
2022/12/21 11:01:25;;;;;;;64.15;28.52;;;9.40;99.90;;;;;;5055463;28;20424;-86
2022/12/21 11:04:29;;;;;;;68.38;30.40;;;9.40;99.90;;;;;;5056415;28;20048;-86
2022/12/21 11:07:05;;;;;;;57.15;27.52;;;9.80;99.90;;;;;;5049583;28;20055;-88
2022/12/21 11:09:33;;;;;;;56.22;29.00;;;10.30;99.90;;;;;;5055290;28;20040;-86
2022/12/21 11:12:18;;;;;;;61.50;29.05;;;10.60;99.90;;;;;;5072619;28;20507;-86
2022/12/21 11:14:44;;;;;;;59.53;28.55;;;10.90;99.90;;;;;;5055887;28;20040;-86
2022/12/21 11:17:19;;;;;;;54.50;25.52;;;11.20;99.90;;;;;;5038222;28;20549;-87
2022/12/21 11:19:45;;;;;;;48.90;25.75;;;11.50;99.90;;;;;;5050194;28;20048;-86
2022/12/21 11:22:15;;;;;;;49.75;24.27;;;11.80;99.90;;;;;;5055338;28;20086;-86
2022/12/21 11:24:43;;;;;;;51.38;25.35;;;11.80;99.90;;;;;;5088840;28;20051;-86
2022/12/21 11:27:12;;;;;;;49.92;25.38;;;11.60;99.90;;;;;;5071798;28;20035;-85
2022/12/21 11:29:50;;;;;;;48.38;23.42;;;11.70;99.90;;;;;;5055061;28;20047;-87
2022/12/21 11:32:17;;;;;;;45.83;24.80;;;12.00;99.90;;;;;;5055336;28;20054;-86
2022/12/21 11:34:55;;;;;;;49.45;22.20;;;12.30;99.90;;;;;;5022894;28;20055;-87
2022/12/21 11:37:36;;;;;;;43.33;22.65;;;12.30;99.90;;;;;;5071307;28;20159;-86
2022/12/21 11:40:11;;;;;;;42.42;22.00;;;12.20;99.90;;;;;;5071556;28;20043;-86
2022/12/21 11:42:59;;;;;;;45.80;21.35;;;12.00;99.90;;;;;;5071202;28;20383;-85
2022/12/21 11:45:58;;;;;;;44.72;22.55;;;12.10;99.90;;;;;;5054752;28;20062;-85
2022/12/21 11:48:36;;;;;;;42.45;20.77;;;12.00;99.90;;;;;;5052562;28;20064;-85
2022/12/21 11:51:09;;;;;;;40.97;20.13;;;12.00;99.90;;;;;;5071716;28;20043;-85
2022/12/21 11:54:13;;;;;;;42.25;18.60;;;12.00;99.90;;;;;;5054735;28;20031;-85
2022/12/21 11:56:45;;;;;;;36.55;18.20;;;11.80;99.90;;;;;;5070956;28;20044;-84
2022/12/21 11:59:19;;;;;;;40.85;20.02;;;11.60;99.90;;;;;;5054879;28;20036;-85
2022/12/21 12:01:57;;;;;;;47.05;20.17;;;11.30;99.90;;;;;;5053219;28;20040;-86
2022/12/21 12:04:41;;;;;;;37.22;18.33;;;10.90;99.90;;;;;;5055274;28;20040;-86
2022/12/21 12:07:41;;;;;;;36.85;18.33;;;10.60;99.90;;;;;;5056717;28;20090;-86
2022/12/21 12:10:28;;;;;;;33.20;17.58;;;10.40;99.90;;;;;;5072332;28;20076;-86
2022/12/21 12:13:09;;;;;;;42.58;18.48;;;10.30;99.90;;;;;;5072932;28;20074;-86
2022/12/21 12:15:56;;;;;;;37.08;19.63;;;10.30;99.90;;;;;;5056891;28;20067;-86
2022/12/21 12:18:34;;;;;;;36.53;18.70;;;10.10;99.90;;;;;;5064360;28;20048;-86
2022/12/21 12:21:31;;;;;;;38.90;19.73;;;10.00;99.90;;;;;;5056419;28;20504;-86
2022/12/21 12:24:40;;;;;;;34.45;19.15;;;9.80;99.90;;;;;;5060403;28;20492;-86
2022/12/21 12:27:21;;;;;;;37.15;19.95;;;9.70;99.90;;;;;;5062014;28;20047;-86
2022/12/21 12:30:22;;;;;;;42.13;20.65;;;9.50;99.90;;;;;;5056523;28;20127;-86
2022/12/21 12:32:58;;;;;;;44.13;21.08;;;9.40;99.90;;;;;;5055747;28;20118;-86
2022/12/21 12:35:48;;;;;;;40.97;21.58;;;9.40;99.90;;;;;;5056465;28;20048;-86
2022/12/21 12:38:35;;;;;;;38.72;21.48;;;9.40;99.90;;;;;;5068497;28;20483;-86
2022/12/21 12:41:18;;;;;;;37.50;21.55;;;9.40;99.90;;;;;;5069979;28;20043;-86
2022/12/21 12:44:01;;;;;;;33.45;18.08;;;9.50;99.90;;;;;;5044481;28;20032;-86
2022/12/21 12:46:30;;;;;;;39.83;21.30;;;9.50;99.90;;;;;;5056379;28;20040;-84
2022/12/21 12:49:29;;;;;;;38.92;21.33;;;9.40;99.90;;;;;;5073871;28;20039;-90
2022/12/21 12:52:37;;;;;;;35.20;21.25;;;9.40;99.90;;;;;;5054184;28;20043;-85
2022/12/21 12:55:37;;;;;;;41.35;22.90;;;9.30;99.90;;;;;;5028071;28;20410;-87
2022/12/21 12:58:11;;;;;;;42.10;21.88;;;9.40;99.90;;;;;;5013213;28;20052;-86
2022/12/21 13:00:59;;;;;;;40.90;20.88;;;9.50;99.90;;;;;;5053801;28;20040;-86
2022/12/21 13:03:47;;;;;;;35.65;20.80;;;9.40;99.90;;;;;;5056047;28;20036;-86
2022/12/21 13:06:27;;;;;;;42.03;22.20;;;9.30;99.90;;;;;;5064386;28;20554;-86
2022/12/21 13:09:32;;;;;;;30.88;19.52;;;9.20;99.90;;;;;;5057335;28;20093;-86
2022/12/21 13:12:23;;;;;;;39.20;19.42;;;9.20;99.90;;;;;;5072386;28;20032;-87
2022/12/21 13:15:14;;;;;;;33.17;19.73;;;9.20;99.90;;;;;;5053172;28;20165;-85